sensor_id;sensor_type;location;lat;lon;timestamp;temperature;humidity
81366;DHT22;70822;51.990;22.766;2023-11-19T00:12:07;1.60;87.70
81366;DHT22;70822;51.990;22.766;2023-11-19T00:27:13;1.60;87.60
81366;DHT22;70822;51.990;22.766;2023-11-19T00:42:20;1.90;87.20
81366;DHT22;70822;51.990;22.766;2023-11-19T00:57:31;1.50;87.20
81366;DHT22;70822;51.990;22.766;2023-11-19T01:12:37;1.50;87.30
81366;DHT22;70822;51.990;22.766;2023-11-19T01:27:42;1.10;87.50
81366;DHT22;70822;51.990;22.766;2023-11-19T01:42:47;1.20;87.80
81366;DHT22;70822;51.990;22.766;2023-11-19T01:57:55;1.20;88.10
81366;DHT22;70822;51.990;22.766;2023-11-19T02:13:03;1.40;87.90
81366;DHT22;70822;51.990;22.766;2023-11-19T02:28:12;1.40;87.80
81366;DHT22;70822;51.990;22.766;2023-11-19T02:43:17;1.40;87.80
81366;DHT22;70822;51.990;22.766;2023-11-19T02:58:23;1.10;88.10
81366;DHT22;70822;51.990;22.766;2023-11-19T03:13:30;1.00;88.30
81366;DHT22;70822;51.990;22.766;2023-11-19T03:28:35;1.30;88.50
81366;DHT22;70822;51.990;22.766;2023-11-19T03:43:40;1.00;88.60
81366;DHT22;70822;51.990;22.766;2023-11-19T03:58:47;1.40;88.50
81366;DHT22;70822;51.990;22.766;2023-11-19T04:13:53;1.20;88.50
81366;DHT22;70822;51.990;22.766;2023-11-19T04:29:02;1.10;88.60
81366;DHT22;70822;51.990;22.766;2023-11-19T04:44:07;1.20;88.60
81366;DHT22;70822;51.990;22.766;2023-11-19T04:59:13;1.40;88.30
81366;DHT22;70822;51.990;22.766;2023-11-19T05:14:18;1.40;88.10
81366;DHT22;70822;51.990;22.766;2023-11-19T05:29:24;1.50;88.20
81366;DHT22;70822;51.990;22.766;2023-11-19T05:44:30;1.40;88.20
81366;DHT22;70822;51.990;22.766;2023-11-19T05:59:37;1.30;88.20
81366;DHT22;70822;51.990;22.766;2023-11-19T06:14:42;1.20;88.50
81366;DHT22;70822;51.990;22.766;2023-11-19T06:29:47;1.70;89.00
81366;DHT22;70822;51.990;22.766;2023-11-19T06:44:52;2.00;88.20
81366;DHT22;70822;51.990;22.766;2023-11-19T06:59:57;1.80;88.30
81366;DHT22;70822;51.990;22.766;2023-11-19T07:15:04;1.80;88.10
81366;DHT22;70822;51.990;22.766;2023-11-19T07:30:09;1.90;88.20
81366;DHT22;70822;51.990;22.766;2023-11-19T07:45:16;1.70;88.30
81366;DHT22;70822;51.990;22.766;2023-11-19T08:00:21;1.90;88.20
81366;DHT22;70822;51.990;22.766;2023-11-19T08:15:26;1.80;88.20
81366;DHT22;70822;51.990;22.766;2023-11-19T08:30:33;2.00;87.70
81366;DHT22;70822;51.990;22.766;2023-11-19T08:45:38;1.70;87.60
81366;DHT22;70822;51.990;22.766;2023-11-19T09:00:44;1.50;87.90
81366;DHT22;70822;51.990;22.766;2023-11-19T09:15:49;1.90;87.70
81366;DHT22;70822;51.990;22.766;2023-11-19T09:30:53;1.80;87.70
81366;DHT22;70822;51.990;22.766;2023-11-19T09:46:02;1.70;87.60
81366;DHT22;70822;51.990;22.766;2023-11-19T10:01:10;1.80;87.50
81366;DHT22;70822;51.990;22.766;2023-11-19T10:16:19;1.60;87.70
81366;DHT22;70822;51.990;22.766;2023-11-19T10:31:26;2.10;87.70
81366;DHT22;70822;51.990;22.766;2023-11-19T10:46:40;2.00;87.30
81366;DHT22;70822;51.990;22.766;2023-11-19T11:01:48;2.00;87.20
81366;DHT22;70822;51.990;22.766;2023-11-19T11:16:56;2.10;86.80
81366;DHT22;70822;51.990;22.766;2023-11-19T11:32:10;2.30;86.90
81366;DHT22;70822;51.990;22.766;2023-11-19T11:47:22;2.30;88.00
81366;DHT22;70822;51.990;22.766;2023-11-19T12:02:29;2.90;84.20
81366;DHT22;70822;51.990;22.766;2023-11-19T12:17:53;2.20;85.10
81366;DHT22;70822;51.990;22.766;2023-11-19T12:32:59;2.10;85.40
81366;DHT22;70822;51.990;22.766;2023-11-19T12:48:08;2.10;85.40
81366;DHT22;70822;51.990;22.766;2023-11-19T13:03:29;2.00;85.80
81366;DHT22;70822;51.990;22.766;2023-11-19T13:18:42;1.80;86.00
81366;DHT22;70822;51.990;22.766;2023-11-19T13:33:48;1.50;86.30
81366;DHT22;70822;51.990;22.766;2023-11-19T13:48:53;1.70;86.60
81366;DHT22;70822;51.990;22.766;2023-11-19T14:03:58;1.50;86.80
81366;DHT22;70822;51.990;22.766;2023-11-19T14:19:03;1.50;87.10
81366;DHT22;70822;51.990;22.766;2023-11-19T14:34:08;1.50;87.40
81366;DHT22;70822;51.990;22.766;2023-11-19T14:49:13;1.50;87.80
81366;DHT22;70822;51.990;22.766;2023-11-19T15:04:18;1.40;87.70
81366;DHT22;70822;51.990;22.766;2023-11-19T15:19:31;1.50;87.60
81366;DHT22;70822;51.990;22.766;2023-11-19T15:34:36;1.50;88.30
81366;DHT22;70822;51.990;22.766;2023-11-19T15:49:42;1.20;88.40
81366;DHT22;70822;51.990;22.766;2023-11-19T16:04:47;1.20;89.00
81366;DHT22;70822;51.990;22.766;2023-11-19T16:19:53;1.30;89.10
81366;DHT22;70822;51.990;22.766;2023-11-19T16:34:58;1.50;89.20
81366;DHT22;70822;51.990;22.766;2023-11-19T16:50:04;1.50;89.20
81366;DHT22;70822;51.990;22.766;2023-11-19T17:05:09;1.30;89.00
81366;DHT22;70822;51.990;22.766;2023-11-19T17:20:15;1.20;89.40
81366;DHT22;70822;51.990;22.766;2023-11-19T17:35:20;1.20;89.40
81366;DHT22;70822;51.990;22.766;2023-11-19T17:50:28;1.30;89.70
81366;DHT22;70822;51.990;22.766;2023-11-19T18:05:33;1.00;89.50
81366;DHT22;70822;51.990;22.766;2023-11-19T18:20:37;0.70;89.60
81366;DHT22;70822;51.990;22.766;2023-11-19T18:35:42;0.70;90.00
81366;DHT22;70822;51.990;22.766;2023-11-19T18:50:48;0.70;90.20
81366;DHT22;70822;51.990;22.766;2023-11-19T19:05:57;0.70;90.30
81366;DHT22;70822;51.990;22.766;2023-11-19T19:21:02;0.60;90.50
81366;DHT22;70822;51.990;22.766;2023-11-19T19:36:09;0.60;90.60
81366;DHT22;70822;51.990;22.766;2023-11-19T19:51:18;0.70;90.20
81366;DHT22;70822;51.990;22.766;2023-11-19T20:06:36;0.70;90.30
81366;DHT22;70822;51.990;22.766;2023-11-19T20:21:52;0.90;90.20
81366;DHT22;70822;51.990;22.766;2023-11-19T20:36:57;0.70;90.40
81366;DHT22;70822;51.990;22.766;2023-11-19T20:52:02;1.00;89.40
81366;DHT22;70822;51.990;22.766;2023-11-19T21:07:07;1.00;89.80
81366;DHT22;70822;51.990;22.766;2023-11-19T21:22:12;0.50;90.30
81366;DHT22;70822;51.990;22.766;2023-11-19T21:37:19;0.60;90.40
81366;DHT22;70822;51.990;22.766;2023-11-19T21:52:25;0.50;90.50
81366;DHT22;70822;51.990;22.766;2023-11-19T22:07:31;0.50;90.30
81366;DHT22;70822;51.990;22.766;2023-11-19T22:22:37;0.50;90.30
81366;DHT22;70822;51.990;22.766;2023-11-19T22:37:45;0.60;90.40
81366;DHT22;70822;51.990;22.766;2023-11-19T22:52:50;0.60;90.50
81366;DHT22;70822;51.990;22.766;2023-11-19T23:07:55;0.40;90.50
81366;DHT22;70822;51.990;22.766;2023-11-19T23:23:00;0.60;90.50
81366;DHT22;70822;51.990;22.766;2023-11-19T23:38:05;0.60;90.70
81366;DHT22;70822;51.990;22.766;2023-11-19T23:53:09;0.60;90.80
